sensor_id;sensor_type;location;lat;lon;timestamp;P1;durP1;ratioP1;P2;durP2;ratioP2
13386;SDS011;6763;48.524;9.044;2024-01-30T00:01:41;7.40;;;4.57;;
13386;SDS011;6763;48.524;9.044;2024-01-30T00:04:06;13.50;;;5.60;;
13386;SDS011;6763;48.524;9.044;2024-01-30T00:06:32;11.50;;;4.97;;
13386;SDS011;6763;48.524;9.044;2024-01-30T00:08:57;9.20;;;5.13;;
13386;SDS011;6763;48.524;9.044;2024-01-30T00:11:23;8.37;;;4.50;;
13386;SDS011;6763;48.524;9.044;2024-01-30T00:13:50;8.30;;;4.97;;
13386;SDS011;6763;48.524;9.044;2024-01-30T00:16:22;5.77;;;4.30;;
13386;SDS011;6763;48.524;9.044;2024-01-30T00:18:52;8.83;;;5.20;;
13386;SDS011;6763;48.524;9.044;2024-01-30T00:21:18;6.93;;;4.80;;
13386;SDS011;6763;48.524;9.044;2024-01-30T00:23:44;12.90;;;5.27;;
13386;SDS011;6763;48.524;9.044;2024-01-30T00:26:09;7.67;;;4.73;;
13386;SDS011;6763;48.524;9.044;2024-01-30T00:28:36;10.87;;;6.23;;
13386;SDS011;6763;48.524;9.044;2024-01-30T00:31:02;10.13;;;5.70;;
13386;SDS011;6763;48.524;9.044;2024-01-30T00:33:27;7.97;;;4.60;;
13386;SDS011;6763;48.524;9.044;2024-01-30T00:35:52;6.93;;;4.77;;
13386;SDS011;6763;48.524;9.044;2024-01-30T00:38:17;10.00;;;5.10;;
13386;SDS011;6763;48.524;9.044;2024-01-30T00:40:43;9.97;;;5.70;;
13386;SDS011;6763;48.524;9.044;2024-01-30T00:43:08;8.53;;;5.30;;
13386;SDS011;6763;48.524;9.044;2024-01-30T00:45:33;10.43;;;5.17;;
13386;SDS011;6763;48.524;9.044;2024-01-30T00:47:59;9.93;;;5.17;;
13386;SDS011;6763;48.524;9.044;2024-01-30T00:50:24;8.80;;;5.20;;
13386;SDS011;6763;48.524;9.044;2024-01-30T00:52:49;7.90;;;4.20;;
13386;SDS011;6763;48.524;9.044;2024-01-30T00:55:15;7.80;;;4.50;;
13386;SDS011;6763;48.524;9.044;2024-01-30T00:57:40;6.07;;;4.50;;
13386;SDS011;6763;48.524;9.044;2024-01-30T01:00:06;7.33;;;4.60;;
13386;SDS011;6763;48.524;9.044;2024-01-30T01:02:34;6.37;;;4.27;;
13386;SDS011;6763;48.524;9.044;2024-01-30T01:04:59;7.87;;;4.43;;
13386;SDS011;6763;48.524;9.044;2024-01-30T01:07:25;6.10;;;3.83;;
13386;SDS011;6763;48.524;9.044;2024-01-30T01:09:50;8.17;;;4.50;;
13386;SDS011;6763;48.524;9.044;2024-01-30T01:12:15;6.27;;;3.60;;
13386;SDS011;6763;48.524;9.044;2024-01-30T01:14:41;8.60;;;4.60;;
13386;SDS011;6763;48.524;9.044;2024-01-30T01:17:06;5.40;;;3.87;;
13386;SDS011;6763;48.524;9.044;2024-01-30T01:19:32;7.10;;;3.73;;
13386;SDS011;6763;48.524;9.044;2024-01-30T01:21:57;5.83;;;3.70;;
13386;SDS011;6763;48.524;9.044;2024-01-30T01:24:23;7.73;;;3.97;;
13386;SDS011;6763;48.524;9.044;2024-01-30T01:26:48;5.63;;;4.20;;
13386;SDS011;6763;48.524;9.044;2024-01-30T01:29:13;6.23;;;3.50;;
13386;SDS011;6763;48.524;9.044;2024-01-30T01:31:40;9.47;;;4.50;;
13386;SDS011;6763;48.524;9.044;2024-01-30T01:34:11;8.30;;;3.87;;
13386;SDS011;6763;48.524;9.044;2024-01-30T01:36:38;4.83;;;3.73;;
13386;SDS011;6763;48.524;9.044;2024-01-30T01:39:04;8.47;;;4.50;;
13386;SDS011;6763;48.524;9.044;2024-01-30T01:41:33;9.47;;;4.57;;
13386;SDS011;6763;48.524;9.044;2024-01-30T01:43:59;5.70;;;4.00;;
13386;SDS011;6763;48.524;9.044;2024-01-30T01:46:27;6.77;;;4.27;;
13386;SDS011;6763;48.524;9.044;2024-01-30T01:48:55;7.00;;;4.47;;
13386;SDS011;6763;48.524;9.044;2024-01-30T01:51:22;7.63;;;4.10;;
13386;SDS011;6763;48.524;9.044;2024-01-30T01:53:49;5.20;;;4.10;;
13386;SDS011;6763;48.524;9.044;2024-01-30T01:56:15;4.50;;;3.60;;
13386;SDS011;6763;48.524;9.044;2024-01-30T01:58:41;6.73;;;4.57;;
13386;SDS011;6763;48.524;9.044;2024-01-30T02:01:06;8.47;;;4.97;;
13386;SDS011;6763;48.524;9.044;2024-01-30T02:03:33;5.40;;;4.77;;
13386;SDS011;6763;48.524;9.044;2024-01-30T02:05:59;8.20;;;4.27;;
13386;SDS011;6763;48.524;9.044;2024-01-30T02:08:24;8.13;;;4.43;;
13386;SDS011;6763;48.524;9.044;2024-01-30T02:10:51;7.83;;;4.47;;
13386;SDS011;6763;48.524;9.044;2024-01-30T02:13:16;7.00;;;3.73;;
13386;SDS011;6763;48.524;9.044;2024-01-30T02:15:41;5.83;;;4.20;;
13386;SDS011;6763;48.524;9.044;2024-01-30T02:18:07;6.73;;;3.67;;
13386;SDS011;6763;48.524;9.044;2024-01-30T02:20:32;5.63;;;4.03;;
13386;SDS011;6763;48.524;9.044;2024-01-30T02:23:00;6.77;;;4.07;;
13386;SDS011;6763;48.524;9.044;2024-01-30T02:28:21;5.27;;;3.77;;
13386;SDS011;6763;48.524;9.044;2024-01-30T02:30:46;6.17;;;4.13;;
13386;SDS011;6763;48.524;9.044;2024-01-30T02:33:14;7.00;;;3.97;;
13386;SDS011;6763;48.524;9.044;2024-01-30T02:35:40;5.13;;;3.47;;
13386;SDS011;6763;48.524;9.044;2024-01-30T02:38:05;6.27;;;3.77;;
13386;SDS011;6763;48.524;9.044;2024-01-30T02:40:31;5.17;;;3.70;;
13386;SDS011;6763;48.524;9.044;2024-01-30T02:42:58;5.97;;;3.63;;
13386;SDS011;6763;48.524;9.044;2024-01-30T02:45:25;5.50;;;4.03;;
13386;SDS011;6763;48.524;9.044;2024-01-30T02:47:50;4.23;;;2.93;;
13386;SDS011;6763;48.524;9.044;2024-01-30T02:50:16;5.53;;;3.50;;
13386;SDS011;6763;48.524;9.044;2024-01-30T02:52:41;4.77;;;3.40;;
13386;SDS011;6763;48.524;9.044;2024-01-30T02:55:08;5.20;;;3.53;;
13386;SDS011;6763;48.524;9.044;2024-01-30T02:57:34;5.63;;;3.77;;
13386;SDS011;6763;48.524;9.044;2024-01-30T02:59:59;5.20;;;3.67;;
13386;SDS011;6763;48.524;9.044;2024-01-30T03:02:25;5.40;;;3.47;;
13386;SDS011;6763;48.524;9.044;2024-01-30T03:04:50;6.67;;;3.97;;
13386;SDS011;6763;48.524;9.044;2024-01-30T03:07:15;7.10;;;3.30;;
13386;SDS011;6763;48.524;9.044;2024-01-30T03:09:41;6.57;;;3.57;;
13386;SDS011;6763;48.524;9.044;2024-01-30T03:12:08;6.83;;;3.83;;
13386;SDS011;6763;48.524;9.044;2024-01-30T03:14:34;6.23;;;3.50;;
13386;SDS011;6763;48.524;9.044;2024-01-30T03:16:59;5.53;;;3.50;;
13386;SDS011;6763;48.524;9.044;2024-01-30T03:19:24;4.97;;;3.30;;
13386;SDS011;6763;48.524;9.044;2024-01-30T03:21:50;5.63;;;3.70;;
13386;SDS011;6763;48.524;9.044;2024-01-30T03:24:16;6.37;;;3.93;;
13386;SDS011;6763;48.524;9.044;2024-01-30T03:26:42;3.33;;;2.77;;
13386;SDS011;6763;48.524;9.044;2024-01-30T03:29:07;5.83;;;3.50;;
13386;SDS011;6763;48.524;9.044;2024-01-30T03:31:33;4.93;;;3.37;;
13386;SDS011;6763;48.524;9.044;2024-01-30T03:33:58;7.30;;;3.63;;
13386;SDS011;6763;48.524;9.044;2024-01-30T03:36:23;6.33;;;3.70;;
13386;SDS011;6763;48.524;9.044;2024-01-30T03:38:48;5.50;;;3.30;;
13386;SDS011;6763;48.524;9.044;2024-01-30T03:41:14;6.30;;;3.50;;
13386;SDS011;6763;48.524;9.044;2024-01-30T03:43:39;6.43;;;3.57;;
13386;SDS011;6763;48.524;9.044;2024-01-30T03:46:05;5.53;;;3.10;;
13386;SDS011;6763;48.524;9.044;2024-01-30T03:48:30;4.97;;;3.27;;
13386;SDS011;6763;48.524;9.044;2024-01-30T03:50:56;3.93;;;2.83;;
13386;SDS011;6763;48.524;9.044;2024-01-30T03:53:21;7.80;;;4.13;;
13386;SDS011;6763;48.524;9.044;2024-01-30T03:55:46;9.43;;;4.33;;
13386;SDS011;6763;48.524;9.044;2024-01-30T03:58:12;5.83;;;3.80;;
13386;SDS011;6763;48.524;9.044;2024-01-30T04:00:37;5.57;;;3.70;;
13386;SDS011;6763;48.524;9.044;2024-01-30T04:03:02;8.20;;;4.13;;
13386;SDS011;6763;48.524;9.044;2024-01-30T04:05:28;6.17;;;3.80;;
13386;SDS011;6763;48.524;9.044;2024-01-30T04:07:53;6.23;;;3.40;;
13386;SDS011;6763;48.524;9.044;2024-01-30T04:10:19;6.93;;;4.07;;
13386;SDS011;6763;48.524;9.044;2024-01-30T04:12:44;4.87;;;3.43;;
13386;SDS011;6763;48.524;9.044;2024-01-30T04:15:09;5.17;;;3.20;;
13386;SDS011;6763;48.524;9.044;2024-01-30T04:17:35;3.87;;;3.10;;
13386;SDS011;6763;48.524;9.044;2024-01-30T04:20:00;6.77;;;3.90;;
13386;SDS011;6763;48.524;9.044;2024-01-30T04:22:25;6.07;;;3.17;;
13386;SDS011;6763;48.524;9.044;2024-01-30T04:24:51;4.67;;;3.10;;
13386;SDS011;6763;48.524;9.044;2024-01-30T04:27:16;6.70;;;3.57;;
13386;SDS011;6763;48.524;9.044;2024-01-30T04:29:42;5.33;;;3.10;;
13386;SDS011;6763;48.524;9.044;2024-01-30T04:32:07;9.40;;;5.07;;
13386;SDS011;6763;48.524;9.044;2024-01-30T04:34:32;10.63;;;4.93;;
13386;SDS011;6763;48.524;9.044;2024-01-30T04:36:58;10.13;;;4.93;;
13386;SDS011;6763;48.524;9.044;2024-01-30T04:39:23;8.70;;;5.20;;
13386;SDS011;6763;48.524;9.044;2024-01-30T04:41:48;5.33;;;3.73;;
13386;SDS011;6763;48.524;9.044;2024-01-30T04:44:14;9.27;;;4.63;;
13386;SDS011;6763;48.524;9.044;2024-01-30T04:46:39;5.07;;;3.83;;
13386;SDS011;6763;48.524;9.044;2024-01-30T04:49:05;5.63;;;2.93;;
13386;SDS011;6763;48.524;9.044;2024-01-30T04:51:32;4.77;;;3.63;;
13386;SDS011;6763;48.524;9.044;2024-01-30T04:53:58;6.07;;;3.80;;
13386;SDS011;6763;48.524;9.044;2024-01-30T04:56:23;5.30;;;3.37;;
13386;SDS011;6763;48.524;9.044;2024-01-30T04:58:49;7.17;;;3.93;;
13386;SDS011;6763;48.524;9.044;2024-01-30T05:01:17;9.70;;;3.70;;
13386;SDS011;6763;48.524;9.044;2024-01-30T05:03:42;4.70;;;3.30;;
13386;SDS011;6763;48.524;9.044;2024-01-30T05:06:08;6.27;;;3.73;;
13386;SDS011;6763;48.524;9.044;2024-01-30T05:08:33;5.50;;;3.10;;
13386;SDS011;6763;48.524;9.044;2024-01-30T05:11:01;5.23;;;3.10;;
13386;SDS011;6763;48.524;9.044;2024-01-30T05:13:28;4.87;;;3.77;;
13386;SDS011;6763;48.524;9.044;2024-01-30T05:15:56;6.50;;;4.10;;
13386;SDS011;6763;48.524;9.044;2024-01-30T05:18:22;5.83;;;4.00;;
13386;SDS011;6763;48.524;9.044;2024-01-30T05:20:48;8.60;;;4.27;;
13386;SDS011;6763;48.524;9.044;2024-01-30T05:23:14;6.23;;;4.03;;
13386;SDS011;6763;48.524;9.044;2024-01-30T05:25:39;6.17;;;3.97;;
13386;SDS011;6763;48.524;9.044;2024-01-30T05:28:05;11.00;;;5.77;;
13386;SDS011;6763;48.524;9.044;2024-01-30T05:30:30;5.17;;;4.10;;
13386;SDS011;6763;48.524;9.044;2024-01-30T05:32:56;6.23;;;4.50;;
13386;SDS011;6763;48.524;9.044;2024-01-30T05:35:21;6.53;;;4.10;;
13386;SDS011;6763;48.524;9.044;2024-01-30T05:37:47;4.83;;;3.40;;
13386;SDS011;6763;48.524;9.044;2024-01-30T05:40:14;6.83;;;3.73;;
13386;SDS011;6763;48.524;9.044;2024-01-30T05:42:39;4.67;;;3.70;;
13386;SDS011;6763;48.524;9.044;2024-01-30T05:45:04;6.17;;;3.47;;
13386;SDS011;6763;48.524;9.044;2024-01-30T05:47:30;5.47;;;3.40;;
13386;SDS011;6763;48.524;9.044;2024-01-30T05:49:55;6.53;;;4.20;;
13386;SDS011;6763;48.524;9.044;2024-01-30T05:52:21;6.07;;;3.60;;
13386;SDS011;6763;48.524;9.044;2024-01-30T05:54:46;3.87;;;2.70;;
13386;SDS011;6763;48.524;9.044;2024-01-30T05:57:11;4.67;;;3.43;;
13386;SDS011;6763;48.524;9.044;2024-01-30T05:59:37;7.53;;;4.67;;
13386;SDS011;6763;48.524;9.044;2024-01-30T06:02:02;6.67;;;3.67;;
13386;SDS011;6763;48.524;9.044;2024-01-30T06:04:28;6.90;;;3.80;;
13386;SDS011;6763;48.524;9.044;2024-01-30T06:06:53;5.77;;;3.20;;
13386;SDS011;6763;48.524;9.044;2024-01-30T06:09:18;6.77;;;3.60;;
13386;SDS011;6763;48.524;9.044;2024-01-30T06:11:43;6.63;;;3.90;;
13386;SDS011;6763;48.524;9.044;2024-01-30T06:14:09;5.93;;;3.50;;
13386;SDS011;6763;48.524;9.044;2024-01-30T06:16:35;5.67;;;3.80;;
13386;SDS011;6763;48.524;9.044;2024-01-30T06:19:00;9.90;;;3.67;;
13386;SDS011;6763;48.524;9.044;2024-01-30T06:21:25;6.10;;;3.57;;
13386;SDS011;6763;48.524;9.044;2024-01-30T06:23:51;5.00;;;3.50;;
13386;SDS011;6763;48.524;9.044;2024-01-30T06:26:16;6.63;;;3.50;;
13386;SDS011;6763;48.524;9.044;2024-01-30T06:28:41;4.60;;;3.03;;
13386;SDS011;6763;48.524;9.044;2024-01-30T06:31:07;5.70;;;3.63;;
13386;SDS011;6763;48.524;9.044;2024-01-30T06:33:32;5.27;;;3.33;;
13386;SDS011;6763;48.524;9.044;2024-01-30T06:36:00;7.33;;;3.93;;
13386;SDS011;6763;48.524;9.044;2024-01-30T06:38:26;6.20;;;4.10;;
13386;SDS011;6763;48.524;9.044;2024-01-30T06:40:51;6.23;;;4.30;;
13386;SDS011;6763;48.524;9.044;2024-01-30T06:43:16;7.07;;;3.80;;
13386;SDS011;6763;48.524;9.044;2024-01-30T06:45:42;5.40;;;3.60;;
13386;SDS011;6763;48.524;9.044;2024-01-30T06:48:07;5.50;;;3.73;;
13386;SDS011;6763;48.524;9.044;2024-01-30T06:50:33;5.70;;;3.97;;
13386;SDS011;6763;48.524;9.044;2024-01-30T06:52:58;5.37;;;3.60;;
13386;SDS011;6763;48.524;9.044;2024-01-30T06:55:24;7.20;;;3.90;;
13386;SDS011;6763;48.524;9.044;2024-01-30T06:57:49;5.30;;;3.47;;
13386;SDS011;6763;48.524;9.044;2024-01-30T07:00:14;4.47;;;3.13;;
13386;SDS011;6763;48.524;9.044;2024-01-30T07:02:41;6.57;;;3.80;;
13386;SDS011;6763;48.524;9.044;2024-01-30T07:05:06;5.93;;;4.40;;
13386;SDS011;6763;48.524;9.044;2024-01-30T07:07:32;4.73;;;3.97;;
13386;SDS011;6763;48.524;9.044;2024-01-30T07:09:58;6.33;;;3.90;;
13386;SDS011;6763;48.524;9.044;2024-01-30T07:12:23;15.40;;;7.27;;
13386;SDS011;6763;48.524;9.044;2024-01-30T07:14:50;6.63;;;4.33;;
13386;SDS011;6763;48.524;9.044;2024-01-30T07:17:18;6.20;;;4.50;;
13386;SDS011;6763;48.524;9.044;2024-01-30T07:19:46;6.77;;;4.30;;
13386;SDS011;6763;48.524;9.044;2024-01-30T07:22:11;8.53;;;4.30;;
13386;SDS011;6763;48.524;9.044;2024-01-30T07:24:41;8.13;;;4.10;;
13386;SDS011;6763;48.524;9.044;2024-01-30T07:27:09;6.67;;;5.13;;
13386;SDS011;6763;48.524;9.044;2024-01-30T07:29:34;4.73;;;3.50;;
13386;SDS011;6763;48.524;9.044;2024-01-30T07:32:00;8.77;;;5.60;;
13386;SDS011;6763;48.524;9.044;2024-01-30T07:34:25;12.93;;;7.73;;
13386;SDS011;6763;48.524;9.044;2024-01-30T07:36:50;6.03;;;4.57;;
13386;SDS011;6763;48.524;9.044;2024-01-30T07:39:16;6.47;;;4.13;;
13386;SDS011;6763;48.524;9.044;2024-01-30T07:41:41;5.23;;;4.27;;
13386;SDS011;6763;48.524;9.044;2024-01-30T07:44:06;8.57;;;4.63;;
13386;SDS011;6763;48.524;9.044;2024-01-30T07:46:32;5.40;;;3.87;;
13386;SDS011;6763;48.524;9.044;2024-01-30T07:48:57;6.33;;;4.13;;
13386;SDS011;6763;48.524;9.044;2024-01-30T07:51:23;6.33;;;4.40;;
13386;SDS011;6763;48.524;9.044;2024-01-30T07:53:49;8.67;;;4.83;;
13386;SDS011;6763;48.524;9.044;2024-01-30T07:56:15;7.23;;;5.40;;
13386;SDS011;6763;48.524;9.044;2024-01-30T07:58:41;9.60;;;5.10;;
13386;SDS011;6763;48.524;9.044;2024-01-30T08:01:06;7.83;;;5.23;;
13386;SDS011;6763;48.524;9.044;2024-01-30T08:03:31;6.90;;;5.40;;
13386;SDS011;6763;48.524;9.044;2024-01-30T08:05:57;7.90;;;5.33;;
13386;SDS011;6763;48.524;9.044;2024-01-30T08:08:22;9.47;;;5.10;;
13386;SDS011;6763;48.524;9.044;2024-01-30T08:10:47;7.50;;;4.83;;
13386;SDS011;6763;48.524;9.044;2024-01-30T08:13:14;9.93;;;8.07;;
13386;SDS011;6763;48.524;9.044;2024-01-30T08:15:39;13.30;;;10.13;;
13386;SDS011;6763;48.524;9.044;2024-01-30T08:18:04;19.87;;;13.20;;
13386;SDS011;6763;48.524;9.044;2024-01-30T08:20:31;15.77;;;10.87;;
13386;SDS011;6763;48.524;9.044;2024-01-30T08:22:57;23.03;;;14.50;;
13386;SDS011;6763;48.524;9.044;2024-01-30T08:25:25;27.47;;;17.33;;
13386;SDS011;6763;48.524;9.044;2024-01-30T08:27:51;27.47;;;15.23;;
13386;SDS011;6763;48.524;9.044;2024-01-30T08:30:16;26.90;;;13.37;;
13386;SDS011;6763;48.524;9.044;2024-01-30T08:32:42;46.20;;;22.73;;
13386;SDS011;6763;48.524;9.044;2024-01-30T08:35:07;17.93;;;10.27;;
13386;SDS011;6763;48.524;9.044;2024-01-30T08:37:33;9.73;;;5.90;;
13386;SDS011;6763;48.524;9.044;2024-01-30T08:39:59;7.83;;;5.87;;
13386;SDS011;6763;48.524;9.044;2024-01-30T08:42:27;7.17;;;5.10;;
13386;SDS011;6763;48.524;9.044;2024-01-30T08:44:53;6.33;;;4.30;;
13386;SDS011;6763;48.524;9.044;2024-01-30T08:47:19;6.20;;;4.27;;
13386;SDS011;6763;48.524;9.044;2024-01-30T08:49:44;8.17;;;4.90;;
13386;SDS011;6763;48.524;9.044;2024-01-30T08:52:10;6.37;;;3.97;;
13386;SDS011;6763;48.524;9.044;2024-01-30T08:54:36;7.63;;;4.63;;
13386;SDS011;6763;48.524;9.044;2024-01-30T08:57:01;6.90;;;4.50;;
13386;SDS011;6763;48.524;9.044;2024-01-30T08:59:27;7.37;;;5.30;;
13386;SDS011;6763;48.524;9.044;2024-01-30T09:01:52;6.27;;;4.73;;
13386;SDS011;6763;48.524;9.044;2024-01-30T09:04:20;7.83;;;4.77;;
13386;SDS011;6763;48.524;9.044;2024-01-30T09:06:46;10.37;;;5.03;;
13386;SDS011;6763;48.524;9.044;2024-01-30T09:09:11;10.17;;;4.83;;
13386;SDS011;6763;48.524;9.044;2024-01-30T09:11:36;8.43;;;6.23;;
13386;SDS011;6763;48.524;9.044;2024-01-30T09:14:02;7.77;;;4.80;;
13386;SDS011;6763;48.524;9.044;2024-01-30T09:16:27;6.37;;;4.90;;
13386;SDS011;6763;48.524;9.044;2024-01-30T09:18:53;7.80;;;5.53;;
13386;SDS011;6763;48.524;9.044;2024-01-30T09:21:18;7.90;;;5.20;;
13386;SDS011;6763;48.524;9.044;2024-01-30T09:23:44;9.10;;;5.60;;
13386;SDS011;6763;48.524;9.044;2024-01-30T09:26:09;8.60;;;4.60;;
13386;SDS011;6763;48.524;9.044;2024-01-30T09:28:35;8.13;;;5.47;;
13386;SDS011;6763;48.524;9.044;2024-01-30T09:31:00;9.47;;;5.93;;
13386;SDS011;6763;48.524;9.044;2024-01-30T09:33:26;9.77;;;5.53;;
13386;SDS011;6763;48.524;9.044;2024-01-30T09:35:51;10.30;;;4.60;;
13386;SDS011;6763;48.524;9.044;2024-01-30T09:38:16;9.33;;;5.53;;
13386;SDS011;6763;48.524;9.044;2024-01-30T09:40:41;8.30;;;5.30;;
13386;SDS011;6763;48.524;9.044;2024-01-30T09:43:07;7.30;;;5.13;;
13386;SDS011;6763;48.524;9.044;2024-01-30T09:45:32;6.13;;;4.97;;
13386;SDS011;6763;48.524;9.044;2024-01-30T09:47:59;9.90;;;6.13;;
13386;SDS011;6763;48.524;9.044;2024-01-30T09:50:25;8.20;;;5.50;;
13386;SDS011;6763;48.524;9.044;2024-01-30T09:52:51;11.37;;;6.47;;
13386;SDS011;6763;48.524;9.044;2024-01-30T09:55:20;10.20;;;6.13;;
13386;SDS011;6763;48.524;9.044;2024-01-30T09:57:45;15.97;;;9.67;;
13386;SDS011;6763;48.524;9.044;2024-01-30T10:00:11;17.10;;;10.87;;
13386;SDS011;6763;48.524;9.044;2024-01-30T10:02:38;15.30;;;7.70;;
13386;SDS011;6763;48.524;9.044;2024-01-30T10:05:07;14.03;;;7.53;;
13386;SDS011;6763;48.524;9.044;2024-01-30T10:07:33;8.53;;;5.50;;
13386;SDS011;6763;48.524;9.044;2024-01-30T10:09:59;11.10;;;5.90;;
13386;SDS011;6763;48.524;9.044;2024-01-30T10:12:29;8.67;;;5.20;;
13386;SDS011;6763;48.524;9.044;2024-01-30T10:14:55;7.57;;;5.70;;
13386;SDS011;6763;48.524;9.044;2024-01-30T10:17:21;10.83;;;7.17;;
13386;SDS011;6763;48.524;9.044;2024-01-30T10:19:50;8.60;;;5.33;;
13386;SDS011;6763;48.524;9.044;2024-01-30T10:22:16;8.83;;;5.30;;
13386;SDS011;6763;48.524;9.044;2024-01-30T10:24:42;10.00;;;6.77;;
13386;SDS011;6763;48.524;9.044;2024-01-30T10:27:10;11.77;;;5.63;;
13386;SDS011;6763;48.524;9.044;2024-01-30T10:29:35;7.93;;;5.43;;
13386;SDS011;6763;48.524;9.044;2024-01-30T10:32:03;6.80;;;4.33;;
13386;SDS011;6763;48.524;9.044;2024-01-30T10:34:30;7.53;;;4.87;;
13386;SDS011;6763;48.524;9.044;2024-01-30T10:37:00;5.77;;;3.97;;
13386;SDS011;6763;48.524;9.044;2024-01-30T10:39:42;10.50;;;4.63;;
13386;SDS011;6763;48.524;9.044;2024-01-30T10:42:12;6.20;;;4.13;;
13386;SDS011;6763;48.524;9.044;2024-01-30T10:47:24;4.57;;;4.00;;
13386;SDS011;6763;48.524;9.044;2024-01-30T10:49:51;8.10;;;4.97;;
13386;SDS011;6763;48.524;9.044;2024-01-30T10:52:17;5.53;;;3.90;;
13386;SDS011;6763;48.524;9.044;2024-01-30T10:54:44;4.83;;;3.63;;
13386;SDS011;6763;48.524;9.044;2024-01-30T10:57:10;5.33;;;3.63;;
13386;SDS011;6763;48.524;9.044;2024-01-30T10:59:37;4.80;;;3.70;;
13386;SDS011;6763;48.524;9.044;2024-01-30T11:02:03;5.00;;;3.47;;
13386;SDS011;6763;48.524;9.044;2024-01-30T11:05:04;5.40;;;3.93;;
13386;SDS011;6763;48.524;9.044;2024-01-30T11:07:26;5.90;;;4.00;;
13386;SDS011;6763;48.524;9.044;2024-01-30T11:09:54;4.00;;;3.47;;
13386;SDS011;6763;48.524;9.044;2024-01-30T11:12:29;4.77;;;3.47;;
13386;SDS011;6763;48.524;9.044;2024-01-30T11:15:01;7.67;;;3.37;;
13386;SDS011;6763;48.524;9.044;2024-01-30T11:20:14;6.30;;;3.47;;
13386;SDS011;6763;48.524;9.044;2024-01-30T11:22:47;5.30;;;3.30;;
13386;SDS011;6763;48.524;9.044;2024-01-30T11:25:16;4.53;;;3.20;;
13386;SDS011;6763;48.524;9.044;2024-01-30T11:27:42;4.73;;;3.47;;
13386;SDS011;6763;48.524;9.044;2024-01-30T11:30:09;4.97;;;3.77;;
13386;SDS011;6763;48.524;9.044;2024-01-30T11:32:35;6.70;;;3.47;;
13386;SDS011;6763;48.524;9.044;2024-01-30T11:35:03;6.33;;;3.60;;
13386;SDS011;6763;48.524;9.044;2024-01-30T11:37:31;5.20;;;3.20;;
13386;SDS011;6763;48.524;9.044;2024-01-30T11:39:56;5.20;;;3.50;;
13386;SDS011;6763;48.524;9.044;2024-01-30T11:42:23;5.47;;;3.13;;
13386;SDS011;6763;48.524;9.044;2024-01-30T11:44:50;5.17;;;3.73;;
13386;SDS011;6763;48.524;9.044;2024-01-30T11:47:15;5.90;;;3.60;;
13386;SDS011;6763;48.524;9.044;2024-01-30T11:49:41;5.00;;;3.50;;
13386;SDS011;6763;48.524;9.044;2024-01-30T11:52:08;7.23;;;3.50;;
13386;SDS011;6763;48.524;9.044;2024-01-30T11:54:34;6.83;;;3.90;;
13386;SDS011;6763;48.524;9.044;2024-01-30T11:56:59;5.23;;;3.57;;
13386;SDS011;6763;48.524;9.044;2024-01-30T11:59:25;4.93;;;3.63;;
13386;SDS011;6763;48.524;9.044;2024-01-30T12:01:51;3.37;;;3.07;;
13386;SDS011;6763;48.524;9.044;2024-01-30T12:04:17;6.33;;;4.13;;
13386;SDS011;6763;48.524;9.044;2024-01-30T12:06:43;6.10;;;3.67;;
13386;SDS011;6763;48.524;9.044;2024-01-30T12:09:08;5.50;;;3.10;;
13386;SDS011;6763;48.524;9.044;2024-01-30T12:11:47;4.50;;;3.43;;
13386;SDS011;6763;48.524;9.044;2024-01-30T12:14:14;3.80;;;3.13;;
13386;SDS011;6763;48.524;9.044;2024-01-30T12:16:41;5.10;;;3.23;;
13386;SDS011;6763;48.524;9.044;2024-01-30T12:19:07;5.80;;;3.77;;
13386;SDS011;6763;48.524;9.044;2024-01-30T12:21:33;4.73;;;3.57;;
13386;SDS011;6763;48.524;9.044;2024-01-30T12:23:59;5.30;;;3.50;;
13386;SDS011;6763;48.524;9.044;2024-01-30T12:26:25;6.23;;;3.50;;
13386;SDS011;6763;48.524;9.044;2024-01-30T12:28:53;7.13;;;3.63;;
13386;SDS011;6763;48.524;9.044;2024-01-30T12:31:27;4.77;;;3.33;;
13386;SDS011;6763;48.524;9.044;2024-01-30T12:33:53;5.60;;;3.70;;
13386;SDS011;6763;48.524;9.044;2024-01-30T12:36:18;5.60;;;3.63;;
13386;SDS011;6763;48.524;9.044;2024-01-30T12:38:44;6.70;;;3.63;;
13386;SDS011;6763;48.524;9.044;2024-01-30T12:41:09;6.57;;;3.53;;
13386;SDS011;6763;48.524;9.044;2024-01-30T12:43:35;5.43;;;3.27;;
13386;SDS011;6763;48.524;9.044;2024-01-30T12:46:01;5.77;;;3.10;;
13386;SDS011;6763;48.524;9.044;2024-01-30T12:48:28;6.23;;;3.53;;
13386;SDS011;6763;48.524;9.044;2024-01-30T12:50:54;5.87;;;3.40;;
13386;SDS011;6763;48.524;9.044;2024-01-30T12:53:20;6.27;;;4.07;;
13386;SDS011;6763;48.524;9.044;2024-01-30T12:55:45;7.23;;;4.00;;
13386;SDS011;6763;48.524;9.044;2024-01-30T12:58:11;4.47;;;2.97;;
13386;SDS011;6763;48.524;9.044;2024-01-30T13:00:36;4.70;;;3.73;;
13386;SDS011;6763;48.524;9.044;2024-01-30T13:03:01;6.63;;;3.97;;
13386;SDS011;6763;48.524;9.044;2024-01-30T13:05:27;8.37;;;4.57;;
13386;SDS011;6763;48.524;9.044;2024-01-30T13:07:52;6.70;;;4.60;;
13386;SDS011;6763;48.524;9.044;2024-01-30T13:10:18;5.17;;;3.47;;
13386;SDS011;6763;48.524;9.044;2024-01-30T13:12:44;4.93;;;3.80;;
13386;SDS011;6763;48.524;9.044;2024-01-30T13:15:09;4.33;;;3.10;;
13386;SDS011;6763;48.524;9.044;2024-01-30T13:17:36;6.17;;;3.63;;
13386;SDS011;6763;48.524;9.044;2024-01-30T13:20:01;6.27;;;3.80;;
13386;SDS011;6763;48.524;9.044;2024-01-30T13:22:28;3.47;;;2.70;;
13386;SDS011;6763;48.524;9.044;2024-01-30T13:24:53;5.23;;;3.50;;
13386;SDS011;6763;48.524;9.044;2024-01-30T13:27:19;5.57;;;3.07;;
13386;SDS011;6763;48.524;9.044;2024-01-30T13:29:45;6.27;;;3.17;;
13386;SDS011;6763;48.524;9.044;2024-01-30T13:32:10;5.73;;;3.83;;
13386;SDS011;6763;48.524;9.044;2024-01-30T13:34:36;5.83;;;3.07;;
13386;SDS011;6763;48.524;9.044;2024-01-30T13:37:01;3.80;;;2.77;;
13386;SDS011;6763;48.524;9.044;2024-01-30T13:39:26;4.00;;;3.23;;
13386;SDS011;6763;48.524;9.044;2024-01-30T13:41:52;4.17;;;2.73;;
13386;SDS011;6763;48.524;9.044;2024-01-30T13:44:18;5.50;;;3.00;;
13386;SDS011;6763;48.524;9.044;2024-01-30T13:46:43;5.73;;;3.07;;
13386;SDS011;6763;48.524;9.044;2024-01-30T13:49:09;4.47;;;2.63;;
13386;SDS011;6763;48.524;9.044;2024-01-30T13:51:35;3.40;;;2.70;;
13386;SDS011;6763;48.524;9.044;2024-01-30T13:54:00;4.10;;;2.80;;
13386;SDS011;6763;48.524;9.044;2024-01-30T13:56:26;4.97;;;3.47;;
13386;SDS011;6763;48.524;9.044;2024-01-30T13:58:51;5.47;;;3.70;;
13386;SDS011;6763;48.524;9.044;2024-01-30T14:01:17;5.07;;;3.60;;
13386;SDS011;6763;48.524;9.044;2024-01-30T14:03:43;8.50;;;4.43;;
13386;SDS011;6763;48.524;9.044;2024-01-30T14:06:08;6.80;;;4.33;;
13386;SDS011;6763;48.524;9.044;2024-01-30T14:08:33;5.63;;;3.67;;
13386;SDS011;6763;48.524;9.044;2024-01-30T14:10:59;7.67;;;3.87;;
13386;SDS011;6763;48.524;9.044;2024-01-30T14:13:24;6.33;;;3.40;;
13386;SDS011;6763;48.524;9.044;2024-01-30T14:15:50;6.23;;;4.37;;
13386;SDS011;6763;48.524;9.044;2024-01-30T14:18:16;6.03;;;3.70;;
13386;SDS011;6763;48.524;9.044;2024-01-30T14:20:41;6.03;;;3.90;;
13386;SDS011;6763;48.524;9.044;2024-01-30T14:23:07;9.27;;;4.23;;
13386;SDS011;6763;48.524;9.044;2024-01-30T14:25:32;6.07;;;3.97;;
13386;SDS011;6763;48.524;9.044;2024-01-30T14:27:57;7.20;;;3.93;;
13386;SDS011;6763;48.524;9.044;2024-01-30T14:30:23;5.43;;;3.20;;
13386;SDS011;6763;48.524;9.044;2024-01-30T14:32:48;3.97;;;3.00;;
13386;SDS011;6763;48.524;9.044;2024-01-30T14:35:14;4.73;;;3.27;;
13386;SDS011;6763;48.524;9.044;2024-01-30T14:37:40;5.93;;;3.67;;
13386;SDS011;6763;48.524;9.044;2024-01-30T14:40:05;5.20;;;3.63;;
13386;SDS011;6763;48.524;9.044;2024-01-30T14:42:34;4.73;;;3.33;;
13386;SDS011;6763;48.524;9.044;2024-01-30T14:45:01;7.90;;;3.60;;
13386;SDS011;6763;48.524;9.044;2024-01-30T14:47:27;5.27;;;3.37;;
13386;SDS011;6763;48.524;9.044;2024-01-30T14:49:52;7.00;;;3.60;;
13386;SDS011;6763;48.524;9.044;2024-01-30T14:52:17;5.53;;;3.57;;
13386;SDS011;6763;48.524;9.044;2024-01-30T14:54:43;7.90;;;3.07;;
13386;SDS011;6763;48.524;9.044;2024-01-30T14:57:08;5.60;;;3.53;;
13386;SDS011;6763;48.524;9.044;2024-01-30T14:59:34;6.13;;;4.17;;
13386;SDS011;6763;48.524;9.044;2024-01-30T15:01:59;19.87;;;8.40;;